sensor_id;sensor_type;location;lat;lon;timestamp;temperature;humidity
28837;DHT22;50669;50.982;11.022;2022-07-29T00:01:01;19.80;70.30
28837;DHT22;50669;50.982;11.022;2022-07-29T00:03:30;19.80;70.30
28837;DHT22;50669;50.982;11.022;2022-07-29T00:05:56;19.70;70.20
28837;DHT22;50669;50.982;11.022;2022-07-29T00:08:21;19.70;70.60
28837;DHT22;50669;50.982;11.022;2022-07-29T00:10:49;19.70;70.60
28837;DHT22;50669;50.982;11.022;2022-07-29T00:13:15;19.70;70.80
28837;DHT22;50669;50.982;11.022;2022-07-29T00:15:47;19.70;71.20
28837;DHT22;50669;50.982;11.022;2022-07-29T00:18:13;19.60;71.40
28837;DHT22;50669;50.982;11.022;2022-07-29T00:20:38;19.60;71.50
28837;DHT22;50669;50.982;11.022;2022-07-29T00:23:05;19.50;71.30
28837;DHT22;50669;50.982;11.022;2022-07-29T00:25:33;19.50;71.30
28837;DHT22;50669;50.982;11.022;2022-07-29T00:27:58;19.60;71.30
28837;DHT22;50669;50.982;11.022;2022-07-29T00:30:26;19.50;71.70
28837;DHT22;50669;50.982;11.022;2022-07-29T00:32:52;19.40;71.80
28837;DHT22;50669;50.982;11.022;2022-07-29T00:35:17;19.40;71.90
28837;DHT22;50669;50.982;11.022;2022-07-29T00:38:01;19.40;72.30
28837;DHT22;50669;50.982;11.022;2022-07-29T00:40:27;19.40;72.30
28837;DHT22;50669;50.982;11.022;2022-07-29T00:42:53;19.30;72.40
28837;DHT22;50669;50.982;11.022;2022-07-29T00:45:19;19.30;72.70
28837;DHT22;50669;50.982;11.022;2022-07-29T00:47:45;19.20;72.50
28837;DHT22;50669;50.982;11.022;2022-07-29T00:50:12;19.30;72.70
28837;DHT22;50669;50.982;11.022;2022-07-29T00:52:39;19.20;72.70
28837;DHT22;50669;50.982;11.022;2022-07-29T00:55:08;19.20;72.80
28837;DHT22;50669;50.982;11.022;2022-07-29T00:57:43;19.20;73.00
28837;DHT22;50669;50.982;11.022;2022-07-29T01:00:18;19.10;74.00
28837;DHT22;50669;50.982;11.022;2022-07-29T01:02:45;19.00;74.40
28837;DHT22;50669;50.982;11.022;2022-07-29T01:05:15;19.00;74.60
28837;DHT22;50669;50.982;11.022;2022-07-29T01:07:42;18.90;74.70
28837;DHT22;50669;50.982;11.022;2022-07-29T01:10:13;18.90;74.90
28837;DHT22;50669;50.982;11.022;2022-07-29T01:12:40;18.80;74.70
28837;DHT22;50669;50.982;11.022;2022-07-29T01:15:09;18.80;74.40
28837;DHT22;50669;50.982;11.022;2022-07-29T01:17:45;18.80;75.00
28837;DHT22;50669;50.982;11.022;2022-07-29T01:34:08;18.50;76.10
28837;DHT22;50669;50.982;11.022;2022-07-29T01:39:17;18.40;76.30
28837;DHT22;50669;50.982;11.022;2022-07-29T01:41:53;18.30;76.30
28837;DHT22;50669;50.982;11.022;2022-07-29T01:44:37;18.30;76.50
28837;DHT22;50669;50.982;11.022;2022-07-29T01:47:11;18.30;76.90
28837;DHT22;50669;50.982;11.022;2022-07-29T01:49:46;18.20;76.80
28837;DHT22;50669;50.982;11.022;2022-07-29T01:52:20;18.20;77.00
28837;DHT22;50669;50.982;11.022;2022-07-29T01:54:53;18.20;76.90
28837;DHT22;50669;50.982;11.022;2022-07-29T01:57:25;18.20;76.80
28837;DHT22;50669;50.982;11.022;2022-07-29T01:59:52;18.10;76.90
28837;DHT22;50669;50.982;11.022;2022-07-29T02:02:19;18.10;77.00
28837;DHT22;50669;50.982;11.022;2022-07-29T02:04:47;18.10;76.80
28837;DHT22;50669;50.982;11.022;2022-07-29T02:07:18;18.10;77.50
28837;DHT22;50669;50.982;11.022;2022-07-29T02:09:45;18.00;78.10
28837;DHT22;50669;50.982;11.022;2022-07-29T02:12:13;18.00;77.70
28837;DHT22;50669;50.982;11.022;2022-07-29T02:14:46;18.00;77.90
28837;DHT22;50669;50.982;11.022;2022-07-29T02:17:13;18.00;78.00
28837;DHT22;50669;50.982;11.022;2022-07-29T02:19:43;18.00;77.70
28837;DHT22;50669;50.982;11.022;2022-07-29T02:22:10;18.00;77.90
28837;DHT22;50669;50.982;11.022;2022-07-29T02:24:37;18.00;78.20
28837;DHT22;50669;50.982;11.022;2022-07-29T02:27:06;18.00;78.50
28837;DHT22;50669;50.982;11.022;2022-07-29T02:29:32;18.00;78.20
28837;DHT22;50669;50.982;11.022;2022-07-29T02:32:02;18.00;78.50
28837;DHT22;50669;50.982;11.022;2022-07-29T02:34:29;18.00;78.20
28837;DHT22;50669;50.982;11.022;2022-07-29T02:36:55;18.00;78.50
28837;DHT22;50669;50.982;11.022;2022-07-29T02:39:22;17.90;78.70
28837;DHT22;50669;50.982;11.022;2022-07-29T02:41:57;17.90;78.90
28837;DHT22;50669;50.982;11.022;2022-07-29T02:44:26;17.90;79.00
28837;DHT22;50669;50.982;11.022;2022-07-29T02:47:21;17.90;78.90
28837;DHT22;50669;50.982;11.022;2022-07-29T02:49:55;17.80;79.10
28837;DHT22;50669;50.982;11.022;2022-07-29T02:52:30;17.80;79.40
28837;DHT22;50669;50.982;11.022;2022-07-29T02:55:01;17.80;79.40
28837;DHT22;50669;50.982;11.022;2022-07-29T02:58:00;17.70;79.20
28837;DHT22;50669;50.982;11.022;2022-07-29T03:00:31;17.70;79.20
28837;DHT22;50669;50.982;11.022;2022-07-29T03:03:03;17.70;79.20
28837;DHT22;50669;50.982;11.022;2022-07-29T03:05:29;17.70;79.60
28837;DHT22;50669;50.982;11.022;2022-07-29T03:08:01;17.60;79.80
28837;DHT22;50669;50.982;11.022;2022-07-29T03:10:29;17.60;79.60
28837;DHT22;50669;50.982;11.022;2022-07-29T03:12:58;17.60;79.80
28837;DHT22;50669;50.982;11.022;2022-07-29T03:15:27;17.50;80.50
28837;DHT22;50669;50.982;11.022;2022-07-29T03:17:56;17.50;80.10
28837;DHT22;50669;50.982;11.022;2022-07-29T03:20:22;17.50;80.00
28837;DHT22;50669;50.982;11.022;2022-07-29T03:22:48;17.50;79.90
28837;DHT22;50669;50.982;11.022;2022-07-29T03:25:17;17.50;80.20
28837;DHT22;50669;50.982;11.022;2022-07-29T03:27:44;17.40;80.20
28837;DHT22;50669;50.982;11.022;2022-07-29T03:30:10;17.40;80.30
28837;DHT22;50669;50.982;11.022;2022-07-29T03:32:36;17.40;80.50
28837;DHT22;50669;50.982;11.022;2022-07-29T03:35:03;17.40;80.80
28837;DHT22;50669;50.982;11.022;2022-07-29T03:37:29;17.40;80.80
28837;DHT22;50669;50.982;11.022;2022-07-29T03:39:57;17.40;80.60
28837;DHT22;50669;50.982;11.022;2022-07-29T03:42:28;17.40;81.00
28837;DHT22;50669;50.982;11.022;2022-07-29T03:44:59;17.40;81.40
28837;DHT22;50669;50.982;11.022;2022-07-29T03:47:27;17.40;81.70
28837;DHT22;50669;50.982;11.022;2022-07-29T03:49:59;17.40;81.30
28837;DHT22;50669;50.982;11.022;2022-07-29T03:52:25;17.40;81.60
28837;DHT22;50669;50.982;11.022;2022-07-29T03:54:53;17.40;81.50
28837;DHT22;50669;50.982;11.022;2022-07-29T03:57:23;17.40;81.40
28837;DHT22;50669;50.982;11.022;2022-07-29T03:59:51;17.30;81.50
28837;DHT22;50669;50.982;11.022;2022-07-29T04:02:17;17.30;81.80
28837;DHT22;50669;50.982;11.022;2022-07-29T04:04:46;17.30;81.90
28837;DHT22;50669;50.982;11.022;2022-07-29T04:07:13;17.30;81.70
28837;DHT22;50669;50.982;11.022;2022-07-29T04:09:39;17.30;81.70
28837;DHT22;50669;50.982;11.022;2022-07-29T04:12:05;17.30;81.90
28837;DHT22;50669;50.982;11.022;2022-07-29T04:14:34;17.30;82.00
28837;DHT22;50669;50.982;11.022;2022-07-29T04:17:03;17.30;82.10
28837;DHT22;50669;50.982;11.022;2022-07-29T04:19:34;17.30;82.40
28837;DHT22;50669;50.982;11.022;2022-07-29T04:22:00;17.30;82.40
28837;DHT22;50669;50.982;11.022;2022-07-29T04:24:29;17.30;82.30
28837;DHT22;50669;50.982;11.022;2022-07-29T04:26:57;17.40;82.20
28837;DHT22;50669;50.982;11.022;2022-07-29T04:29:25;17.40;81.90
28837;DHT22;50669;50.982;11.022;2022-07-29T04:31:51;17.40;81.80
28837;DHT22;50669;50.982;11.022;2022-07-29T04:34:19;17.50;82.00
28837;DHT22;50669;50.982;11.022;2022-07-29T04:36:45;17.50;82.20
28837;DHT22;50669;50.982;11.022;2022-07-29T04:39:10;17.50;82.60
28837;DHT22;50669;50.982;11.022;2022-07-29T04:41:36;17.50;82.50
28837;DHT22;50669;50.982;11.022;2022-07-29T04:44:02;17.50;82.60
28837;DHT22;50669;50.982;11.022;2022-07-29T04:46:31;17.50;82.60
28837;DHT22;50669;50.982;11.022;2022-07-29T04:48:56;17.50;82.40
28837;DHT22;50669;50.982;11.022;2022-07-29T04:51:22;17.60;82.50
28837;DHT22;50669;50.982;11.022;2022-07-29T04:53:48;17.60;82.40
28837;DHT22;50669;50.982;11.022;2022-07-29T04:56:18;17.60;82.50
28837;DHT22;50669;50.982;11.022;2022-07-29T04:58:44;17.60;82.60
28837;DHT22;50669;50.982;11.022;2022-07-29T05:01:09;17.60;82.50
28837;DHT22;50669;50.982;11.022;2022-07-29T05:03:37;17.60;82.40
28837;DHT22;50669;50.982;11.022;2022-07-29T05:06:05;17.60;82.30
28837;DHT22;50669;50.982;11.022;2022-07-29T05:08:31;17.60;82.50
28837;DHT22;50669;50.982;11.022;2022-07-29T05:10:56;17.60;82.00
28837;DHT22;50669;50.982;11.022;2022-07-29T05:13:22;17.60;82.20
28837;DHT22;50669;50.982;11.022;2022-07-29T05:15:47;17.60;82.10
28837;DHT22;50669;50.982;11.022;2022-07-29T05:18:15;17.60;82.20
28837;DHT22;50669;50.982;11.022;2022-07-29T05:20:43;17.60;82.70
28837;DHT22;50669;50.982;11.022;2022-07-29T05:23:09;17.60;82.60
28837;DHT22;50669;50.982;11.022;2022-07-29T05:25:38;17.60;83.00
28837;DHT22;50669;50.982;11.022;2022-07-29T05:28:04;17.60;82.90
28837;DHT22;50669;50.982;11.022;2022-07-29T05:30:29;17.60;82.80
28837;DHT22;50669;50.982;11.022;2022-07-29T05:32:57;17.70;82.70
28837;DHT22;50669;50.982;11.022;2022-07-29T05:35:23;17.70;82.50
28837;DHT22;50669;50.982;11.022;2022-07-29T05:37:51;17.70;82.30
28837;DHT22;50669;50.982;11.022;2022-07-29T05:40:19;17.90;82.00
28837;DHT22;50669;50.982;11.022;2022-07-29T05:42:47;18.00;81.60
28837;DHT22;50669;50.982;11.022;2022-07-29T05:45:13;18.20;81.20
28837;DHT22;50669;50.982;11.022;2022-07-29T05:47:41;18.40;80.70
28837;DHT22;50669;50.982;11.022;2022-07-29T05:50:09;18.50;80.40
28837;DHT22;50669;50.982;11.022;2022-07-29T05:52:35;18.60;80.80
28837;DHT22;50669;50.982;11.022;2022-07-29T05:55:03;18.70;79.60
28837;DHT22;50669;50.982;11.022;2022-07-29T05:57:31;18.80;79.20
28837;DHT22;50669;50.982;11.022;2022-07-29T05:59:56;18.90;78.70
28837;DHT22;50669;50.982;11.022;2022-07-29T06:02:22;19.00;78.50
28837;DHT22;50669;50.982;11.022;2022-07-29T06:04:47;19.10;78.20
28837;DHT22;50669;50.982;11.022;2022-07-29T06:07:13;19.10;78.10
28837;DHT22;50669;50.982;11.022;2022-07-29T06:09:44;19.20;78.00
28837;DHT22;50669;50.982;11.022;2022-07-29T06:12:12;19.20;78.00
28837;DHT22;50669;50.982;11.022;2022-07-29T06:14:38;19.20;78.10
28837;DHT22;50669;50.982;11.022;2022-07-29T06:17:04;19.30;77.50
28837;DHT22;50669;50.982;11.022;2022-07-29T06:19:30;19.20;77.50
28837;DHT22;50669;50.982;11.022;2022-07-29T06:21:56;19.20;77.90
28837;DHT22;50669;50.982;11.022;2022-07-29T06:24:22;19.20;78.00
28837;DHT22;50669;50.982;11.022;2022-07-29T06:26:48;19.20;78.00
28837;DHT22;50669;50.982;11.022;2022-07-29T06:29:15;19.30;78.00
28837;DHT22;50669;50.982;11.022;2022-07-29T06:31:41;19.40;77.90
28837;DHT22;50669;50.982;11.022;2022-07-29T06:34:07;19.50;77.30
28837;DHT22;50669;50.982;11.022;2022-07-29T06:36:40;19.50;77.20
28837;DHT22;50669;50.982;11.022;2022-07-29T06:39:06;19.50;77.10
28837;DHT22;50669;50.982;11.022;2022-07-29T06:41:32;19.60;77.00
28837;DHT22;50669;50.982;11.022;2022-07-29T06:43:58;19.70;76.50
28837;DHT22;50669;50.982;11.022;2022-07-29T06:46:24;19.80;76.70
28837;DHT22;50669;50.982;11.022;2022-07-29T06:48:50;19.90;76.40
28837;DHT22;50669;50.982;11.022;2022-07-29T06:51:17;19.90;75.90
28837;DHT22;50669;50.982;11.022;2022-07-29T06:53:43;20.00;75.60
28837;DHT22;50669;50.982;11.022;2022-07-29T06:56:13;20.10;75.50
28837;DHT22;50669;50.982;11.022;2022-07-29T06:58:42;20.30;75.20
28837;DHT22;50669;50.982;11.022;2022-07-29T07:01:07;20.40;74.60
28837;DHT22;50669;50.982;11.022;2022-07-29T07:03:33;20.40;74.70
28837;DHT22;50669;50.982;11.022;2022-07-29T07:05:59;20.50;74.20
28837;DHT22;50669;50.982;11.022;2022-07-29T07:08:25;20.60;73.50
28837;DHT22;50669;50.982;11.022;2022-07-29T07:10:53;20.70;73.60
28837;DHT22;50669;50.982;11.022;2022-07-29T07:13:19;20.70;73.50
28837;DHT22;50669;50.982;11.022;2022-07-29T07:15:45;20.70;73.40
28837;DHT22;50669;50.982;11.022;2022-07-29T07:18:13;20.80;73.60
28837;DHT22;50669;50.982;11.022;2022-07-29T07:20:39;21.00;73.30
28837;DHT22;50669;50.982;11.022;2022-07-29T07:23:04;21.20;72.40
28837;DHT22;50669;50.982;11.022;2022-07-29T07:25:30;21.30;71.90
28837;DHT22;50669;50.982;11.022;2022-07-29T07:27:56;21.40;72.00
28837;DHT22;50669;50.982;11.022;2022-07-29T07:30:24;21.60;71.30
28837;DHT22;50669;50.982;11.022;2022-07-29T07:32:50;21.60;71.10
28837;DHT22;50669;50.982;11.022;2022-07-29T07:35:18;21.80;70.40
28837;DHT22;50669;50.982;11.022;2022-07-29T07:37:46;21.90;70.00
28837;DHT22;50669;50.982;11.022;2022-07-29T07:40:14;22.00;68.90
28837;DHT22;50669;50.982;11.022;2022-07-29T07:42:40;22.00;68.80
28837;DHT22;50669;50.982;11.022;2022-07-29T07:45:09;22.00;68.70
28837;DHT22;50669;50.982;11.022;2022-07-29T07:47:37;22.10;68.10
28837;DHT22;50669;50.982;11.022;2022-07-29T07:50:07;22.20;67.50
28837;DHT22;50669;50.982;11.022;2022-07-29T07:52:33;22.20;68.30
28837;DHT22;50669;50.982;11.022;2022-07-29T07:54:59;22.10;68.30
28837;DHT22;50669;50.982;11.022;2022-07-29T07:57:25;22.20;68.60
28837;DHT22;50669;50.982;11.022;2022-07-29T07:59:51;22.30;69.10
28837;DHT22;50669;50.982;11.022;2022-07-29T08:02:16;22.30;68.40
28837;DHT22;50669;50.982;11.022;2022-07-29T08:04:44;22.40;68.20
28837;DHT22;50669;50.982;11.022;2022-07-29T08:07:10;22.50;67.40
28837;DHT22;50669;50.982;11.022;2022-07-29T08:09:36;22.30;67.40
28837;DHT22;50669;50.982;11.022;2022-07-29T08:12:02;22.30;68.20
28837;DHT22;50669;50.982;11.022;2022-07-29T08:14:32;22.40;68.00
28837;DHT22;50669;50.982;11.022;2022-07-29T08:16:58;22.60;67.60
28837;DHT22;50669;50.982;11.022;2022-07-29T08:19:24;22.80;67.10
28837;DHT22;50669;50.982;11.022;2022-07-29T08:21:54;23.00;66.50
28837;DHT22;50669;50.982;11.022;2022-07-29T08:24:21;23.10;66.00
28837;DHT22;50669;50.982;11.022;2022-07-29T08:27:05;23.30;65.00
28837;DHT22;50669;50.982;11.022;2022-07-29T08:29:30;23.30;64.90
28837;DHT22;50669;50.982;11.022;2022-07-29T08:31:58;23.20;65.20
28837;DHT22;50669;50.982;11.022;2022-07-29T08:34:24;23.10;64.70
28837;DHT22;50669;50.982;11.022;2022-07-29T08:36:52;23.10;65.40
28837;DHT22;50669;50.982;11.022;2022-07-29T08:39:18;23.20;65.40
28837;DHT22;50669;50.982;11.022;2022-07-29T08:41:43;23.10;64.70
28837;DHT22;50669;50.982;11.022;2022-07-29T08:44:11;23.40;64.80
28837;DHT22;50669;50.982;11.022;2022-07-29T08:46:40;23.70;64.20
28837;DHT22;50669;50.982;11.022;2022-07-29T08:49:05;24.00;63.70
28837;DHT22;50669;50.982;11.022;2022-07-29T08:51:33;24.00;63.30
28837;DHT22;50669;50.982;11.022;2022-07-29T08:54:00;24.00;62.90
28837;DHT22;50669;50.982;11.022;2022-07-29T08:56:26;23.80;63.50
28837;DHT22;50669;50.982;11.022;2022-07-29T08:58:52;24.00;63.40
28837;DHT22;50669;50.982;11.022;2022-07-29T09:01:23;24.20;63.30
28837;DHT22;50669;50.982;11.022;2022-07-29T09:03:49;24.30;63.30
28837;DHT22;50669;50.982;11.022;2022-07-29T09:06:18;24.50;62.70
28837;DHT22;50669;50.982;11.022;2022-07-29T09:08:47;24.70;62.40
28837;DHT22;50669;50.982;11.022;2022-07-29T09:11:16;24.90;61.80
28837;DHT22;50669;50.982;11.022;2022-07-29T09:13:44;25.20;61.20
28837;DHT22;50669;50.982;11.022;2022-07-29T09:16:10;25.00;61.10
28837;DHT22;50669;50.982;11.022;2022-07-29T09:18:44;25.10;61.50
28837;DHT22;50669;50.982;11.022;2022-07-29T09:21:13;25.30;61.40
28837;DHT22;50669;50.982;11.022;2022-07-29T09:24:05;25.40;60.30
28837;DHT22;50669;50.982;11.022;2022-07-29T09:26:36;25.30;60.20
28837;DHT22;50669;50.982;11.022;2022-07-29T09:29:14;25.40;60.10
28837;DHT22;50669;50.982;11.022;2022-07-29T09:31:50;25.50;59.90
28837;DHT22;50669;50.982;11.022;2022-07-29T09:34:27;25.40;59.70
28837;DHT22;50669;50.982;11.022;2022-07-29T09:36:54;25.40;59.80
28837;DHT22;50669;50.982;11.022;2022-07-29T09:39:32;25.50;58.80
28837;DHT22;50669;50.982;11.022;2022-07-29T09:42:03;25.70;58.90
28837;DHT22;50669;50.982;11.022;2022-07-29T09:44:49;25.80;59.40
28837;DHT22;50669;50.982;11.022;2022-07-29T09:47:18;25.90;59.10
28837;DHT22;50669;50.982;11.022;2022-07-29T09:49:59;26.00;58.80
28837;DHT22;50669;50.982;11.022;2022-07-29T09:52:29;26.10;58.20
28837;DHT22;50669;50.982;11.022;2022-07-29T09:55:06;26.20;58.30
28837;DHT22;50669;50.982;11.022;2022-07-29T09:57:31;26.30;58.10
28837;DHT22;50669;50.982;11.022;2022-07-29T10:00:07;26.20;58.30
28837;DHT22;50669;50.982;11.022;2022-07-29T10:02:35;26.30;58.30
28837;DHT22;50669;50.982;11.022;2022-07-29T10:05:04;26.60;57.90
28837;DHT22;50669;50.982;11.022;2022-07-29T10:07:53;26.60;58.00
28837;DHT22;50669;50.982;11.022;2022-07-29T10:10:29;26.70;58.10
28837;DHT22;50669;50.982;11.022;2022-07-29T10:12:59;26.70;57.80
28837;DHT22;50669;50.982;11.022;2022-07-29T10:15:28;26.70;57.70
28837;DHT22;50669;50.982;11.022;2022-07-29T10:17:55;26.90;57.70
28837;DHT22;50669;50.982;11.022;2022-07-29T10:20:24;27.20;57.60
28837;DHT22;50669;50.982;11.022;2022-07-29T10:22:50;27.50;56.20
28837;DHT22;50669;50.982;11.022;2022-07-29T10:25:17;27.70;55.40
28837;DHT22;50669;50.982;11.022;2022-07-29T10:27:44;27.70;55.30
28837;DHT22;50669;50.982;11.022;2022-07-29T10:30:11;27.60;54.50
28837;DHT22;50669;50.982;11.022;2022-07-29T10:32:44;27.50;55.10
28837;DHT22;50669;50.982;11.022;2022-07-29T10:43:21;27.40;53.00
28837;DHT22;50669;50.982;11.022;2022-07-29T10:45:48;27.20;52.20
28837;DHT22;50669;50.982;11.022;2022-07-29T10:48:15;27.20;52.80
28837;DHT22;50669;50.982;11.022;2022-07-29T10:50:59;27.30;53.00
28837;DHT22;50669;50.982;11.022;2022-07-29T10:53:47;27.30;53.10
28837;DHT22;50669;50.982;11.022;2022-07-29T10:56:41;27.30;53.40
28837;DHT22;50669;50.982;11.022;2022-07-29T11:01:52;27.40;54.10
28837;DHT22;50669;50.982;11.022;2022-07-29T11:07:08;27.30;54.10
28837;DHT22;50669;50.982;11.022;2022-07-29T11:09:34;27.30;54.00
28837;DHT22;50669;50.982;11.022;2022-07-29T11:12:02;27.20;54.20
28837;DHT22;50669;50.982;11.022;2022-07-29T11:14:59;27.10;54.00
28837;DHT22;50669;50.982;11.022;2022-07-29T11:17:27;27.00;54.10
28837;DHT22;50669;50.982;11.022;2022-07-29T11:22:57;26.90;55.40
28837;DHT22;50669;50.982;11.022;2022-07-29T11:25:23;26.90;55.20
28837;DHT22;50669;50.982;11.022;2022-07-29T11:27:49;26.90;55.30
28837;DHT22;50669;50.982;11.022;2022-07-29T11:30:15;26.90;55.40
28837;DHT22;50669;50.982;11.022;2022-07-29T11:32:44;26.90;55.10
28837;DHT22;50669;50.982;11.022;2022-07-29T11:35:16;27.00;55.90
28837;DHT22;50669;50.982;11.022;2022-07-29T11:41:25;26.90;56.30
28837;DHT22;50669;50.982;11.022;2022-07-29T11:43:55;27.00;55.80
28837;DHT22;50669;50.982;11.022;2022-07-29T11:46:43;27.10;56.10
28837;DHT22;50669;50.982;11.022;2022-07-29T11:49:11;27.30;56.40
28837;DHT22;50669;50.982;11.022;2022-07-29T11:51:37;27.20;55.70
28837;DHT22;50669;50.982;11.022;2022-07-29T11:54:04;27.20;56.00
28837;DHT22;50669;50.982;11.022;2022-07-29T11:56:31;27.30;56.10
28837;DHT22;50669;50.982;11.022;2022-07-29T11:59:05;27.30;55.20
28837;DHT22;50669;50.982;11.022;2022-07-29T12:01:33;27.40;55.80
28837;DHT22;50669;50.982;11.022;2022-07-29T12:04:05;27.60;55.60
28837;DHT22;50669;50.982;11.022;2022-07-29T12:06:35;27.80;55.40
28837;DHT22;50669;50.982;11.022;2022-07-29T12:09:07;27.90;55.00
28837;DHT22;50669;50.982;11.022;2022-07-29T12:11:32;27.80;55.10
28837;DHT22;50669;50.982;11.022;2022-07-29T12:13:58;27.90;54.60
28837;DHT22;50669;50.982;11.022;2022-07-29T12:16:37;28.10;55.00
28837;DHT22;50669;50.982;11.022;2022-07-29T12:19:03;28.60;53.70
28837;DHT22;50669;50.982;11.022;2022-07-29T12:22:03;29.50;53.20
28837;DHT22;50669;50.982;11.022;2022-07-29T12:24:26;30.50;51.30
28837;DHT22;50669;50.982;11.022;2022-07-29T12:26:56;31.00;50.80
28837;DHT22;50669;50.982;11.022;2022-07-29T12:29:25;31.40;49.80
28837;DHT22;50669;50.982;11.022;2022-07-29T12:31:59;31.90;48.80
28837;DHT22;50669;50.982;11.022;2022-07-29T12:34:27;31.60;49.00
28837;DHT22;50669;50.982;11.022;2022-07-29T12:36:54;31.10;49.80
28837;DHT22;50669;50.982;11.022;2022-07-29T12:39:20;30.90;50.30
28837;DHT22;50669;50.982;11.022;2022-07-29T12:41:46;30.70;50.40
28837;DHT22;50669;50.982;11.022;2022-07-29T12:44:12;30.60;50.80
28837;DHT22;50669;50.982;11.022;2022-07-29T12:46:37;30.70;50.60
28837;DHT22;50669;50.982;11.022;2022-07-29T12:49:04;31.10;50.00
28837;DHT22;50669;50.982;11.022;2022-07-29T12:51:37;31.20;50.00
28837;DHT22;50669;50.982;11.022;2022-07-29T12:54:14;31.10;49.70
28837;DHT22;50669;50.982;11.022;2022-07-29T12:56:44;30.90;50.50
28837;DHT22;50669;50.982;11.022;2022-07-29T12:59:21;30.80;50.30
28837;DHT22;50669;50.982;11.022;2022-07-29T13:01:49;30.40;50.60
28837;DHT22;50669;50.982;11.022;2022-07-29T13:04:31;30.30;51.10
28837;DHT22;50669;50.982;11.022;2022-07-29T13:06:59;30.20;51.20
28837;DHT22;50669;50.982;11.022;2022-07-29T13:09:39;30.50;51.10
28837;DHT22;50669;50.982;11.022;2022-07-29T13:12:07;30.40;50.70
28837;DHT22;50669;50.982;11.022;2022-07-29T13:14:46;30.40;50.80
28837;DHT22;50669;50.982;11.022;2022-07-29T13:17:20;30.30;51.20
28837;DHT22;50669;50.982;11.022;2022-07-29T13:19:52;30.40;51.30
28837;DHT22;50669;50.982;11.022;2022-07-29T13:22:24;30.70;51.00
28837;DHT22;50669;50.982;11.022;2022-07-29T13:24:56;30.70;50.70
28837;DHT22;50669;50.982;11.022;2022-07-29T13:27:26;30.50;50.80
28837;DHT22;50669;50.982;11.022;2022-07-29T13:29:54;30.60;50.90
28837;DHT22;50669;50.982;11.022;2022-07-29T13:32:22;30.70;50.80
28837;DHT22;50669;50.982;11.022;2022-07-29T13:34:48;30.90;50.70
28837;DHT22;50669;50.982;11.022;2022-07-29T13:37:14;30.80;50.50
28837;DHT22;50669;50.982;11.022;2022-07-29T13:39:39;30.70;50.50
28837;DHT22;50669;50.982;11.022;2022-07-29T13:42:06;30.80;50.50
28837;DHT22;50669;50.982;11.022;2022-07-29T13:44:35;30.70;50.40
28837;DHT22;50669;50.982;11.022;2022-07-29T13:47:01;30.70;50.50
28837;DHT22;50669;50.982;11.022;2022-07-29T13:49:26;30.60;50.50
28837;DHT22;50669;50.982;11.022;2022-07-29T13:51:53;30.50;50.60
28837;DHT22;50669;50.982;11.022;2022-07-29T13:54:19;30.30;50.80
28837;DHT22;50669;50.982;11.022;2022-07-29T13:56:45;30.10;51.00
28837;DHT22;50669;50.982;11.022;2022-07-29T13:59:13;30.10;51.50
28837;DHT22;50669;50.982;11.022;2022-07-29T14:01:39;30.10;51.30
28837;DHT22;50669;50.982;11.022;2022-07-29T14:04:07;30.10;51.30
28837;DHT22;50669;50.982;11.022;2022-07-29T14:06:34;30.40;51.40
28837;DHT22;50669;50.982;11.022;2022-07-29T14:08:59;31.10;50.30
28837;DHT22;50669;50.982;11.022;2022-07-29T14:11:25;31.90;49.10
28837;DHT22;50669;50.982;11.022;2022-07-29T14:13:51;32.20;48.90
28837;DHT22;50669;50.982;11.022;2022-07-29T14:16:16;32.90;48.30
28837;DHT22;50669;50.982;11.022;2022-07-29T14:18:42;33.60;47.00
28837;DHT22;50669;50.982;11.022;2022-07-29T14:21:08;33.70;46.20
28837;DHT22;50669;50.982;11.022;2022-07-29T14:23:34;33.20;46.90
28837;DHT22;50669;50.982;11.022;2022-07-29T14:26:00;32.80;47.30
28837;DHT22;50669;50.982;11.022;2022-07-29T14:28:30;32.20;47.90
28837;DHT22;50669;50.982;11.022;2022-07-29T14:31:01;31.90;48.70
28837;DHT22;50669;50.982;11.022;2022-07-29T14:33:29;31.80;48.60
28837;DHT22;50669;50.982;11.022;2022-07-29T14:35:57;32.00;48.60
28837;DHT22;50669;50.982;11.022;2022-07-29T14:38:23;32.20;48.50
28837;DHT22;50669;50.982;11.022;2022-07-29T14:40:49;32.30;48.00
28837;DHT22;50669;50.982;11.022;2022-07-29T14:43:14;32.30;48.50
28837;DHT22;50669;50.982;11.022;2022-07-29T14:45:40;32.00;48.40
28837;DHT22;50669;50.982;11.022;2022-07-29T14:48:09;31.60;49.10
28837;DHT22;50669;50.982;11.022;2022-07-29T14:50:36;32.20;48.60
28837;DHT22;50669;50.982;11.022;2022-07-29T14:53:05;32.60;47.90
28837;DHT22;50669;50.982;11.022;2022-07-29T14:55:30;32.90;48.00
28837;DHT22;50669;50.982;11.022;2022-07-29T14:57:58;33.00;48.00
28837;DHT22;50669;50.982;11.022;2022-07-29T15:00:26;32.60;47.90
28837;DHT22;50669;50.982;11.022;2022-07-29T15:02:54;31.80;48.70
28837;DHT22;50669;50.982;11.022;2022-07-29T15:05:22;31.50;49.60
28837;DHT22;50669;50.982;11.022;2022-07-29T15:07:50;31.30;49.90
28837;DHT22;50669;50.982;11.022;2022-07-29T15:10:16;31.10;50.00
28837;DHT22;50669;50.982;11.022;2022-07-29T15:12:42;30.80;50.20
28837;DHT22;50669;50.982;11.022;2022-07-29T15:15:10;30.60;50.60
28837;DHT22;50669;50.982;11.022;2022-07-29T15:17:36;30.50;51.20
28837;DHT22;50669;50.982;11.022;2022-07-29T15:20:02;30.50;51.00
28837;DHT22;50669;50.982;11.022;2022-07-29T15:22:28;30.30;51.60
28837;DHT22;50669;50.982;11.022;2022-07-29T15:24:56;30.20;51.60
28837;DHT22;50669;50.982;11.022;2022-07-29T15:27:24;30.10;51.90
28837;DHT22;50669;50.982;11.022;2022-07-29T15:29:49;30.10;51.80
28837;DHT22;50669;50.982;11.022;2022-07-29T15:32:17;30.00;51.80
28837;DHT22;50669;50.982;11.022;2022-07-29T15:34:48;30.00;51.80
28837;DHT22;50669;50.982;11.022;2022-07-29T15:37:14;30.00;52.20
28837;DHT22;50669;50.982;11.022;2022-07-29T15:39:39;30.00;52.30
28837;DHT22;50669;50.982;11.022;2022-07-29T15:42:05;30.10;52.10
28837;DHT22;50669;50.982;11.022;2022-07-29T15:44:31;30.10;52.00
28837;DHT22;50669;50.982;11.022;2022-07-29T15:46:57;30.30;52.00
28837;DHT22;50669;50.982;11.022;2022-07-29T15:49:30;30.30;51.90
28837;DHT22;50669;50.982;11.022;2022-07-29T15:52:05;30.40;51.80
28837;DHT22;50669;50.982;11.022;2022-07-29T15:54:36;30.30;51.90
28837;DHT22;50669;50.982;11.022;2022-07-29T15:57:04;30.30;52.10
28837;DHT22;50669;50.982;11.022;2022-07-29T15:59:33;30.30;52.10
28837;DHT22;50669;50.982;11.022;2022-07-29T16:01:59;30.10;52.50